createdAt,value
2023-04-06T00:02:08.387Z,98426.58
2023-04-06T00:05:47.583Z,98428.17
2023-04-06T00:09:23.928Z,98431.11
2023-04-06T00:13:01.576Z,98428.48
2023-04-06T00:16:39.331Z,98428.19
2023-04-06T00:20:17.111Z,98420.96
2023-04-06T00:24:13.371Z,98422.21
2023-04-06T00:27:55.097Z,98420.23
2023-04-06T00:31:17.680Z,98415.69
2023-04-06T00:34:55.665Z,98414.01
2023-04-06T00:38:51.895Z,98410.29
2023-04-06T00:42:33.533Z,98407.24
2023-04-06T00:45:56.192Z,98406.92
2023-04-06T00:49:34.722Z,98406.58
2023-04-06T00:53:11.291Z,98402.73
2023-04-06T00:57:07.747Z,98404.25
2023-04-06T01:00:30.013Z,98399.80
2023-04-06T01:04:07.873Z,98397.05
2023-04-06T01:07:45.787Z,98400.08
2023-04-06T01:11:41.880Z,98402.88
2023-04-06T01:15:26.160Z,98402.43
2023-04-06T01:18:48.471Z,98402.84
2023-04-06T01:22:26.360Z,98398.00
2023-04-06T01:26:03.761Z,98399.23
2023-04-06T01:30:00.594Z,98400.64
2023-04-06T01:33:33.609Z,98402.56
2023-04-06T01:37:11.572Z,98405.32
2023-04-06T01:40:48.915Z,98401.64
2023-04-06T01:44:45.929Z,98395.97
2023-04-06T01:48:10.504Z,98395.02
2023-04-06T01:51:47.966Z,98388.18
2023-04-06T01:55:44.644Z,98385.89
2023-04-06T01:59:20.653Z,98389.70
2023-04-06T02:03:32.016Z,98387.02
2023-04-06T02:07:00.656Z,98381.63
2023-04-06T02:10:38.166Z,98383.97
2023-04-06T02:14:35.158Z,98378.04
2023-04-06T02:17:58.515Z,98381.77
2023-04-06T02:21:54.687Z,98378.21
2023-04-06T02:25:17.023Z,98375.72
2023-04-06T02:28:54.782Z,98382.65
2023-04-06T02:32:32.307Z,98384.01
2023-04-06T02:36:10.412Z,98380.80
2023-04-06T02:40:07.353Z,98375.39
2023-04-06T02:43:48.845Z,98375.40
2023-04-06T02:47:18.377Z,98377.63
2023-04-06T02:50:56.689Z,98377.84
2023-04-06T02:54:52.629Z,98378.85
2023-04-06T02:58:39.678Z,98379.53
2023-04-06T03:02:02.286Z,98385.45
2023-04-06T03:06:00.141Z,98383.24
2023-04-06T03:09:44.868Z,98384.08
2023-04-06T03:13:07.835Z,98380.04
2023-04-06T03:17:04.023Z,98379.20
2023-04-06T03:20:26.400Z,98385.11
2023-04-06T03:24:04.337Z,98381.40
2023-04-06T03:28:00.592Z,98377.85
2023-04-06T03:31:23.181Z,98381.90
2023-04-06T03:35:19.735Z,98380.71
2023-04-06T03:38:41.932Z,98390.17
2023-04-06T03:42:19.744Z,98388.48
2023-04-06T03:46:16.104Z,98393.90
2023-04-06T03:49:40.586Z,98391.54
2023-04-06T03:53:16.941Z,98384.79
2023-04-06T03:56:54.882Z,98388.14
2023-04-06T04:00:33.832Z,98387.28
2023-04-06T04:04:11.517Z,98386.94
2023-04-06T04:07:47.612Z,98387.95
2023-04-06T04:11:44.391Z,98392.69
2023-04-06T04:15:07.552Z,98393.70
2023-04-06T04:18:46.452Z,98395.73
2023-04-06T04:22:41.216Z,98389.50
2023-04-06T04:26:03.883Z,98389.17
2023-04-06T04:29:41.188Z,98387.65
2023-04-06T04:33:19.034Z,98385.10
2023-04-06T04:37:15.336Z,98380.38
2023-04-06T04:41:02.785Z,98390.01
2023-04-06T04:44:26.607Z,98396.08
2023-04-06T04:48:23.356Z,98387.48
2023-04-06T04:51:53.626Z,98383.75
2023-04-06T04:55:49.622Z,98382.55
2023-04-06T04:59:13.747Z,98380.01
2023-04-06T05:02:51.734Z,98381.85
2023-04-06T05:06:29.023Z,98382.66
2023-04-06T05:23:21.911Z,98374.11
2023-04-06T05:27:01.187Z,98372.77
2023-04-06T05:30:57.252Z,98375.34
2023-04-06T05:34:39.102Z,98376.67
2023-04-06T05:38:02.835Z,98377.33
2023-04-06T05:42:03.853Z,98379.65
2023-04-06T05:45:53.202Z,98378.44
2023-04-06T05:49:35.866Z,98377.52
2023-04-06T05:53:17.848Z,98374.08
2023-04-06T05:56:49.061Z,98371.09
2023-04-06T06:00:27.289Z,98369.64
2023-04-06T06:04:23.161Z,98372.57
2023-04-06T06:08:07.071Z,98372.81
2023-04-06T06:11:31.407Z,98368.61
2023-04-06T06:15:09.172Z,98366.58
2023-04-06T06:18:46.762Z,98368.13
2023-04-06T06:22:43.051Z,98368.30
2023-04-06T06:26:09.533Z,98367.44
2023-04-06T06:29:47.216Z,98364.44
2023-04-06T06:33:27.261Z,98365.54
2023-04-06T06:37:04.690Z,98364.64
2023-04-06T06:40:42.288Z,98368.50
2023-04-06T06:44:38.485Z,98366.30
2023-04-06T06:48:21.670Z,98362.84
2023-04-06T06:52:05.029Z,98363.14
2023-04-06T06:55:49.222Z,98360.91
2023-04-06T06:59:32.745Z,98362.13
2023-04-06T07:03:17.027Z,98361.55
2023-04-06T07:06:41.775Z,98365.70
2023-04-06T07:10:19.567Z,98363.22
2023-04-06T07:14:16.590Z,98364.09
2023-04-06T07:17:42.543Z,98362.16
2023-04-06T07:21:18.296Z,98363.21
2023-04-06T07:24:56.326Z,98360.04
2023-04-06T07:28:34.024Z,98358.52
2023-04-06T07:32:11.774Z,98362.09
2023-04-06T07:35:49.088Z,98362.88
2023-04-06T07:39:45.880Z,98362.64
2023-04-06T07:43:29.642Z,98363.77
2023-04-06T07:46:55.067Z,98365.20
2023-04-06T07:50:32.722Z,98369.46
2023-04-06T07:54:10.494Z,98365.61
2023-04-06T07:57:47.548Z,98361.23
2023-04-06T08:01:26.282Z,98367.70
2023-04-06T08:05:02.819Z,98366.77
2023-04-06T08:08:40.655Z,98364.02
2023-04-06T08:12:18.160Z,98362.71
2023-04-06T08:16:15.580Z,98364.05
2023-04-06T08:19:40.000Z,98364.25
2023-04-06T08:23:17.703Z,98358.91
2023-04-06T08:27:15.035Z,98358.69
2023-04-06T08:30:59.071Z,98355.10
2023-04-06T08:34:43.637Z,98353.69
2023-04-06T08:38:08.720Z,98355.09
2023-04-06T08:42:04.563Z,98346.02
2023-04-06T08:45:48.103Z,98342.38
2023-04-06T08:49:13.834Z,98333.80
2023-04-06T08:52:50.775Z,98331.01
2023-04-06T08:56:29.292Z,98327.70
2023-04-06T09:00:08.843Z,98332.33
2023-04-06T09:03:44.208Z,98330.92
2023-04-06T09:07:40.611Z,98327.00
2023-04-06T09:11:23.695Z,98318.33
2023-04-06T09:14:48.146Z,98316.63
2023-04-06T09:18:32.818Z,98314.27
2023-04-06T09:22:10.870Z,98308.94
2023-04-06T09:25:41.011Z,98311.57
2023-04-06T09:29:28.978Z,98310.42
2023-04-06T09:32:58.413Z,98309.77
2023-04-06T09:36:53.318Z,98301.33
2023-04-06T09:40:39.911Z,98302.98
2023-04-06T09:44:11.861Z,98292.94
2023-04-06T09:47:47.985Z,98295.55
2023-04-06T09:51:28.043Z,98291.38
2023-04-06T09:55:42.272Z,98284.73
2023-04-06T09:59:43.846Z,98286.20
2023-04-06T10:04:09.328Z,98280.77
2023-04-06T10:07:35.924Z,98283.52
2023-04-06T10:11:12.078Z,98280.94
2023-04-06T10:14:50.372Z,98273.38
2023-04-06T10:18:28.035Z,98270.29
2023-04-06T10:22:06.208Z,98268.45
2023-04-06T10:25:57.989Z,98266.70
2023-04-06T10:29:49.109Z,98263.69
2023-04-06T10:33:17.339Z,98260.31
2023-04-06T10:36:50.790Z,98254.44
2023-04-06T10:40:28.924Z,98254.75
2023-04-06T10:44:06.152Z,98259.91
2023-04-06T10:47:43.740Z,98251.73
2023-04-06T10:51:28.587Z,98250.77
2023-04-06T10:55:00.483Z,98245.73
2023-04-06T10:58:37.055Z,98244.27
2023-04-06T11:02:23.810Z,98246.23
2023-04-06T11:05:52.609Z,98244.52
2023-04-06T11:09:32.645Z,98232.54
2023-04-06T11:13:37.334Z,98239.22
2023-04-06T11:17:01.636Z,98240.10
2023-04-06T11:20:39.433Z,98234.98
2023-04-06T11:24:21.343Z,98233.23
2023-04-06T11:28:13.682Z,98232.75
2023-04-06T11:32:04.527Z,98234.55
2023-04-06T11:35:32.334Z,98238.23
2023-04-06T11:39:07.971Z,98233.72
2023-04-06T11:42:53.577Z,98234.95
2023-04-06T11:46:21.873Z,98229.16
2023-04-06T11:50:14.231Z,98228.02
2023-04-06T11:53:49.051Z,98227.95
2023-04-06T11:57:37.935Z,98231.51
2023-04-06T12:01:06.031Z,98225.90
2023-04-06T12:04:40.093Z,98230.54
2023-04-06T12:08:17.391Z,98228.33
2023-04-06T12:12:13.941Z,98220.13
2023-04-06T12:15:38.267Z,98218.55
2023-04-06T12:19:16.068Z,98214.36
2023-04-06T12:22:53.225Z,98213.39
2023-04-06T12:26:32.074Z,98216.36
2023-04-06T12:30:09.445Z,98211.15
2023-04-06T12:34:05.315Z,98209.52
2023-04-06T12:37:30.388Z,98209.33
2023-04-06T12:41:07.053Z,98211.36
2023-04-06T12:45:03.897Z,98207.67
2023-04-06T12:48:28.490Z,98200.16
2023-04-06T12:52:24.734Z,98202.81
2023-04-06T12:55:49.210Z,98200.48
2023-04-06T12:59:27.016Z,98196.12
2023-04-06T13:03:24.036Z,98190.26
2023-04-06T13:06:48.339Z,98187.63
2023-04-06T13:10:26.605Z,98186.61
2023-04-06T13:14:03.677Z,98185.63
2023-04-06T13:18:00.871Z,98182.14
2023-04-06T13:21:44.169Z,98182.45
2023-04-06T13:25:09.342Z,98186.15
2023-04-06T13:28:46.795Z,98177.59
2023-04-06T13:32:24.290Z,98171.04
2023-04-06T13:36:01.975Z,98170.64
2023-04-06T13:39:39.635Z,98169.44
2023-04-06T13:43:20.200Z,98168.02
2023-04-06T13:46:55.559Z,98160.39
2023-04-06T13:50:33.763Z,98155.63
2023-04-06T13:54:29.238Z,98151.36
2023-04-06T13:57:53.672Z,98147.88
2023-04-06T14:01:31.187Z,98145.90
2023-04-06T14:05:09.584Z,98143.52
2023-04-06T14:09:05.666Z,98144.36
2023-04-06T14:12:30.200Z,98144.02
2023-04-06T14:16:08.584Z,98141.80
2023-04-06T14:19:45.488Z,98139.33
2023-04-06T14:23:42.460Z,98142.13
2023-04-06T14:27:07.400Z,98143.67
2023-04-06T14:31:15.327Z,98140.99
2023-04-06T14:34:39.924Z,98139.73
2023-04-06T14:38:36.725Z,98140.02
2023-04-06T14:42:20.328Z,98141.88
2023-04-06T14:45:44.637Z,98143.02
2023-04-06T14:49:41.142Z,98144.21
2023-04-06T14:53:05.738Z,98143.83
2023-04-06T14:56:44.079Z,98143.86
2023-04-06T15:00:21.455Z,98145.27
2023-04-06T15:03:58.458Z,98143.17
2023-04-06T15:07:36.070Z,98138.79
2023-04-06T15:11:14.352Z,98136.23
2023-04-06T15:15:10.988Z,98136.38
2023-04-06T15:18:36.322Z,98131.74
2023-04-06T15:22:12.751Z,98125.64
2023-04-06T15:25:50.734Z,98132.66
2023-04-06T15:29:28.041Z,98129.02
2023-04-06T15:33:08.102Z,98126.54
2023-04-06T15:37:04.213Z,98121.96
2023-04-06T15:40:28.395Z,98121.54
2023-04-06T15:44:25.787Z,98115.75
2023-04-06T15:48:09.276Z,98111.67
2023-04-06T15:51:33.768Z,98119.66
2023-04-06T15:55:11.028Z,98126.23
2023-04-06T15:58:48.789Z,98130.75
2023-04-06T16:02:27.032Z,98135.55
2023-04-06T16:06:08.998Z,98136.67
2023-04-06T16:10:00.624Z,98137.84
2023-04-06T16:13:24.930Z,98138.09
2023-04-06T16:17:21.232Z,98139.63
2023-04-06T16:20:46.131Z,98140.42
2023-04-06T16:24:41.899Z,98140.63
2023-04-06T16:28:25.070Z,98146.86
2023-04-06T16:31:49.306Z,98151.90
2023-04-06T16:35:27.121Z,98153.02
2023-04-06T16:39:23.244Z,98156.09
2023-04-06T16:42:48.302Z,98156.98
2023-04-06T16:46:35.903Z,98160.33
2023-04-06T16:50:21.725Z,98162.59
2023-04-06T16:53:47.924Z,98162.66
2023-04-06T16:57:42.356Z,98167.59
2023-04-06T17:01:07.225Z,98162.56
2023-04-06T17:04:45.416Z,98159.27
2023-04-06T17:08:42.609Z,98156.23
2023-04-06T17:12:09.467Z,98157.54
2023-04-06T17:15:45.520Z,98156.02
2023-04-06T17:19:23.207Z,98157.11
2023-04-06T17:23:00.928Z,98161.66
2023-04-06T17:26:57.433Z,98160.75
2023-04-06T17:30:22.382Z,98161.04
2023-04-06T17:33:59.999Z,98160.17
2023-04-06T17:37:56.376Z,98159.48
2023-04-06T17:41:39.817Z,98159.39
2023-04-06T17:45:04.376Z,98160.08
2023-04-06T17:48:43.974Z,98155.73
2023-04-06T17:52:19.472Z,98154.65
2023-04-06T17:55:57.339Z,98152.51
2023-04-06T17:59:35.354Z,98152.83
2023-04-06T18:03:31.856Z,98156.73
2023-04-06T18:06:56.802Z,98158.10
2023-04-06T18:10:53.472Z,98154.41
2023-04-06T18:14:19.006Z,98149.13
2023-04-06T18:17:56.865Z,98150.27
2023-04-06T18:21:53.280Z,98149.98
2023-04-06T18:25:18.727Z,98146.88
2023-04-06T18:28:56.045Z,98141.00
2023-04-06T18:32:33.301Z,98142.31
2023-04-06T18:36:30.766Z,98137.83
2023-04-06T18:40:31.319Z,98139.30
2023-04-06T18:44:14.621Z,98136.73
2023-04-06T18:47:41.749Z,98134.91
2023-04-06T18:51:41.354Z,98133.20
2023-04-06T18:55:07.422Z,98131.61
2023-04-06T18:59:02.345Z,98128.22
2023-04-06T19:02:26.732Z,98124.29
2023-04-06T19:06:07.845Z,98121.06
2023-04-06T19:09:41.964Z,98117.92
2023-04-06T19:13:38.505Z,98117.49
2023-04-06T19:17:04.147Z,98116.90
2023-04-06T19:20:40.928Z,98116.04
2023-04-06T19:24:18.706Z,98116.19
2023-04-06T19:27:56.712Z,98114.80
2023-04-06T19:31:53.221Z,98115.42
2023-04-06T19:35:17.961Z,98118.73
2023-04-06T19:39:16.693Z,98120.39
2023-04-06T19:42:41.646Z,98113.40
2023-04-06T19:46:38.434Z,98104.60
2023-04-06T19:50:23.297Z,98099.81
2023-04-06T19:54:07.284Z,98098.88
2023-04-06T19:57:51.792Z,98098.87
2023-04-06T20:01:16.018Z,98097.73
2023-04-06T20:04:53.502Z,98096.36
2023-04-06T20:08:31.451Z,98094.42
2023-04-06T20:12:09.214Z,98096.31
2023-04-06T20:15:46.723Z,98092.05
2023-04-06T20:19:24.528Z,98094.60
2023-04-06T20:23:02.114Z,98092.52
2023-04-06T20:26:40.318Z,98088.05
2023-04-06T20:30:36.526Z,98088.74
2023-04-06T20:34:01.611Z,98085.79
2023-04-06T20:37:38.741Z,98088.02
2023-04-06T20:41:16.565Z,98086.70
2023-04-06T20:44:57.024Z,98083.52
2023-04-06T20:48:33.597Z,98082.12
2023-04-06T20:52:09.609Z,98079.69
2023-04-06T20:56:05.739Z,98074.63
2023-04-06T20:59:30.301Z,98068.81
2023-04-06T21:03:27.124Z,98060.41
2023-04-06T21:06:51.864Z,98057.66
2023-04-06T21:10:48.344Z,98056.81
2023-04-06T21:14:13.372Z,98052.52
2023-04-06T21:17:51.229Z,98056.52
2023-04-06T21:21:47.660Z,98050.23
2023-04-06T21:25:31.814Z,98050.80
2023-04-06T21:28:56.238Z,98052.66
2023-04-06T21:32:34.720Z,98045.40
2023-04-06T21:36:11.550Z,98040.45
2023-04-06T21:39:49.148Z,98043.05
2023-04-06T21:43:26.806Z,98042.40
2023-04-06T21:47:04.670Z,98035.60
2023-04-06T21:50:42.279Z,98030.80
2023-04-06T21:54:19.860Z,98027.73
2023-04-06T21:57:57.406Z,98027.89
2023-04-06T22:01:56.658Z,98026.36
2023-04-06T22:05:40.478Z,98025.58
2023-04-06T22:09:05.659Z,98022.86
2023-04-06T22:12:42.779Z,98023.45
2023-04-06T22:16:20.146Z,98025.35
2023-04-06T22:19:58.045Z,98018.30
2023-04-06T22:23:36.087Z,98011.95
2023-04-06T22:27:13.258Z,98008.15
2023-04-06T22:30:50.838Z,98010.90
2023-04-06T22:34:47.580Z,98008.88
2023-04-06T22:38:30.442Z,98008.67
2023-04-06T22:41:54.837Z,98003.04
2023-04-06T22:45:32.189Z,98000.02
2023-04-06T22:49:10.128Z,97995.67
2023-04-06T22:52:47.741Z,97989.96
2023-04-06T22:56:25.747Z,97985.55
2023-04-06T23:00:24.266Z,97986.19
2023-04-06T23:04:09.309Z,97987.28
2023-04-06T23:07:52.648Z,97985.70
2023-04-06T23:11:36.094Z,97983.20
2023-04-06T23:15:00.523Z,97982.92
2023-04-06T23:18:39.751Z,97984.23
2023-04-06T23:22:34.651Z,97984.77
2023-04-06T23:25:59.094Z,97983.06
2023-04-06T23:29:57.036Z,97982.55
2023-04-06T23:33:22.684Z,97977.70
2023-04-06T23:37:03.214Z,97973.32
2023-04-06T23:40:38.677Z,97963.13
2023-04-06T23:44:34.724Z,97962.86
2023-04-06T23:48:18.190Z,97956.51
2023-04-06T23:52:01.918Z,97949.48
2023-04-06T23:55:48.039Z,97942.59
2023-04-06T23:59:12.258Z,97938.36
